Startpagina
METAR-TAF:

METAR-TAF

Vliegvelden :

Musoma, Tanzania

breedte: 01-30S, lengte: 033-48E, hoogte: 1147 m

Actueel weer

Dit bericht is 2 uur en het 2 minuten geleden gemaakt, om 09:00 UTC
Weinig wind
Temperatuur 28°C
Vochtigheid 62%
Druk 1017 hPa
Zicht 10 km of meer
Weinig wolken op 2600 ft
Weinig wolken op 2800 ft, Cumulonimbus.

METAR: HTMU 220900Z 00000KT 9999 FEW026 FEW028CB 28/20 Q1017

Tijdstip: 14:02 (11:02 UTC)


TAF: ontbreekt

Waarnemingen en weersverwachtingen van meer dan 4000 vliegvelden (METAR en TAF).

De beschikbare stations zijn de gele en rode punten op de kaart.

Ga met uw muis naar het station om de naam te zien.

Klik dan om waarnemingen en weersverwachtingen te zien.

kaart wijzigen: klik op de groene knoppen met een zwart kruis om in te zoomen, op de groene knop met een streepje om uit te zoomen of op de groene pijlen voor aangrenzende kaarten.


METAR-TAF: